Time;durP1;ratioP1;P1;durP2;ratioP2;P2;SDS_P1;SDS_P2;PMS_P1;PMS_P2;Temp;Humidity;BMP_temperature;BMP_pressure;BME280_temperature;BME280_humidity;BME280_pressure;Samples;Min_cycle;Max_cycle;Signal;HPM_P1;HPM_P2
2022/09/22 00:01:42;;;;;;;4.72;1.20;;;;;;;;;;5033028;28;20022;-70
2022/09/22 00:04:11;;;;;;;4.05;0.90;;;;;;;;;;5033389;28;20027;-71
2022/09/22 00:06:38;;;;;;;3.83;1.25;;;;;;;;;;5033314;28;20030;-71
2022/09/22 00:09:05;;;;;;;4.22;1.17;;;;;;;;;;5033152;28;20032;-71
2022/09/22 00:11:35;;;;;;;3.63;1.05;;;;;;;;;;5032905;28;20490;-72
2022/09/22 00:14:04;;;;;;;2.23;0.97;;;;;;;;;;5032406;28;20485;-71
2022/09/22 00:16:32;;;;;;;3.53;1.27;;;;;;;;;;5032599;28;20736;-72
2022/09/22 00:18:58;;;;;;;4.07;1.15;;;;;;;;;;5033056;28;20040;-72
2022/09/22 00:21:29;;;;;;;3.65;1.23;;;;;;;;;;5033110;28;20021;-72
2022/09/22 00:23:56;;;;;;;4.05;1.33;;;;;;;;;;5032873;28;20489;-71
2022/09/22 00:26:23;;;;;;;3.47;1.30;;;;;;;;;;5032964;28;20087;-72
2022/09/22 00:28:52;;;;;;;4.60;0.98;;;;;;;;;;5032965;28;20017;-71
2022/09/22 00:31:19;;;;;;;3.58;1.38;;;;;;;;;;5032341;28;20037;-72
2022/09/22 00:33:46;;;;;;;5.60;1.20;;;;;;;;;;5047940;28;20037;-72
2022/09/22 00:36:16;;;;;;;6.30;1.42;;;;;;;;;;5032835;28;20017;-71
2022/09/22 00:38:42;;;;;;;5.75;1.75;;;;;;;;;;5032638;28;20559;-72
2022/09/22 00:41:15;;;;;;;2.03;1.20;;;;;;;;;;5032795;28;20017;-71
2022/09/22 00:43:43;;;;;;;3.35;1.17;;;;;;;;;;5032758;28;20037;-72
2022/09/22 00:46:14;;;;;;;5.60;1.10;;;;;;;;;;5032182;28;20379;-72
2022/09/22 00:48:43;;;;;;;;;;;;;;;;;;5032888;28;20037;-72
2022/09/22 00:51:11;;;;;;;4.97;1.35;;;;;;;;;;5032452;28;19905;-72
2022/09/22 00:53:38;;;;;;;3.10;1.23;;;;;;;;;;5032322;28;20033;-71
2022/09/22 00:56:18;;;;;;;6.30;1.35;;;;;;;;;;5032409;28;20024;-71
2022/09/22 00:58:51;;;;;;;2.63;1.00;;;;;;;;;;5032645;28;20025;-71
2022/09/22 01:01:18;;;;;;;2.08;1.05;;;;;;;;;;5032180;28;20029;-72
2022/09/22 01:03:45;;;;;;;3.00;1.20;;;;;;;;;;5032111;28;20016;-72
2022/09/22 01:06:14;;;;;;;3.30;1.27;;;;;;;;;;5032222;28;20025;-71
2022/09/22 01:08:42;;;;;;;2.53;1.30;;;;;;;;;;5032090;28;20020;-72
2022/09/22 01:11:09;;;;;;;2.05;1.00;;;;;;;;;;5032289;28;20052;-72
2022/09/22 01:13:35;;;;;;;1.85;1.10;;;;;;;;;;5032185;28;20514;-72
2022/09/22 01:16:11;;;;;;;2.20;1.10;;;;;;;;;;5032081;28;20091;-71
2022/09/22 01:18:44;;;;;;;6.97;0.95;;;;;;;;;;5030778;28;20524;-71
2022/09/22 01:21:29;;;;;;;3.70;1.25;;;;;;;;;;5032065;28;20385;-72
2022/09/22 01:24:14;;;;;;;2.35;1.10;;;;;;;;;;5032015;28;20034;-72
2022/09/22 01:26:49;;;;;;;2.15;1.10;;;;;;;;;;5031924;28;20025;-72
2022/09/22 01:29:34;;;;;;;3.78;1.15;;;;;;;;;;5031574;28;20516;-71
2022/09/22 01:32:16;;;;;;;3.20;1.13;;;;;;;;;;5047676;28;20025;-71
2022/09/22 01:34:45;;;;;;;2.97;1.27;;;;;;;;;;5031933;28;20103;-72
2022/09/22 01:37:14;;;;;;;3.63;1.27;;;;;;;;;;5032095;28;20024;-71
2022/09/22 01:39:40;;;;;;;6.20;1.77;;;;;;;;;;5031994;28;20412;-72
2022/09/22 01:42:16;;;;;;;2.33;1.30;;;;;;;;;;5032169;28;20027;-72
2022/09/22 01:44:55;;;;;;;1.88;1.05;;;;;;;;;;5031914;28;20028;-71
2022/09/22 01:47:27;;;;;;;1.95;1.33;;;;;;;;;;5031823;28;20397;-72
2022/09/22 01:49:57;;;;;;;3.38;1.23;;;;;;;;;;5031754;28;20497;-72
2022/09/22 01:52:26;;;;;;;2.72;1.10;;;;;;;;;;5032056;28;20082;-71
2022/09/22 01:54:58;;;;;;;1.77;0.98;;;;;;;;;;5031718;28;20037;-72
2022/09/22 01:57:30;;;;;;;3.85;1.20;;;;;;;;;;5031451;28;20375;-72
2022/09/22 02:00:02;;;;;;;2.30;1.13;;;;;;;;;;5031660;28;20035;-71
2022/09/22 02:02:30;;;;;;;4.35;1.15;;;;;;;;;;5031638;28;20419;-72
2022/09/22 02:04:59;;;;;;;2.22;1.10;;;;;;;;;;5031796;28;20013;-71
2022/09/22 02:07:29;;;;;;;4.20;1.25;;;;;;;;;;5031783;28;20029;-72
2022/09/22 02:09:58;;;;;;;2.38;1.13;;;;;;;;;;5031553;28;20029;-72
2022/09/22 02:12:24;;;;;;;3.55;1.27;;;;;;;;;;5030010;28;20110;-72
2022/09/22 02:14:51;;;;;;;3.45;1.30;;;;;;;;;;5031515;28;20452;-72
2022/09/22 02:17:17;;;;;;;4.25;1.20;;;;;;;;;;5031379;28;20027;-72
2022/09/22 02:19:44;;;;;;;2.65;1.45;;;;;;;;;;5031927;28;20096;-72
2022/09/22 02:22:11;;;;;;;1.75;1.08;;;;;;;;;;5031513;28;20025;-71
2022/09/22 02:24:39;;;;;;;2.15;1.20;;;;;;;;;;5030296;28;20030;-72
2022/09/22 02:27:07;;;;;;;5.25;1.00;;;;;;;;;;5031022;28;20474;-71
2022/09/22 02:29:36;;;;;;;2.63;1.25;;;;;;;;;;5031460;28;20021;-71
2022/09/22 02:32:05;;;;;;;2.50;1.02;;;;;;;;;;5047141;28;20045;-71
2022/09/22 02:34:32;;;;;;;5.68;1.10;;;;;;;;;;5031203;28;20037;-71
2022/09/22 02:37:17;;;;;;;3.83;1.23;;;;;;;;;;5033954;28;20024;-71
2022/09/22 02:39:55;;;;;;;2.35;1.10;;;;;;;;;;5035102;28;20032;-71
2022/09/22 02:42:34;;;;;;;2.78;1.13;;;;;;;;;;5034507;28;20036;-71
2022/09/22 02:45:04;;;;;;;2.92;1.10;;;;;;;;;;5050360;28;20033;-71
2022/09/22 02:47:36;;;;;;;2.25;1.10;;;;;;;;;;5034733;28;20486;-71
2022/09/22 02:50:05;;;;;;;3.50;1.25;;;;;;;;;;5034991;28;20040;-71
2022/09/22 02:52:31;;;;;;;3.50;1.23;;;;;;;;;;5034586;28;20022;-72
2022/09/22 02:54:58;;;;;;;5.63;1.20;;;;;;;;;;5034431;28;20406;-72
2022/09/22 02:57:24;;;;;;;2.83;1.13;;;;;;;;;;5034235;28;20028;-72
2022/09/22 02:59:50;;;;;;;4.28;1.38;;;;;;;;;;5034481;28;20429;-72
2022/09/22 03:02:17;;;;;;;3.50;1.23;;;;;;;;;;5034545;28;20031;-71
2022/09/22 03:04:43;;;;;;;4.90;1.13;;;;;;;;;;5034552;28;20021;-71
2022/09/22 03:07:09;;;;;;;5.97;1.25;;;;;;;;;;5034208;28;20095;-71
2022/09/22 03:09:36;;;;;;;2.95;0.95;;;;;;;;;;5034653;28;20026;-72
2022/09/22 03:12:02;;;;;;;3.38;1.30;;;;;;;;;;5033773;28;20041;-71
2022/09/22 03:14:29;;;;;;;4.93;1.63;;;;;;;;;;5034112;28;20095;-72
2022/09/22 03:16:55;;;;;;;4.88;1.48;;;;;;;;;;5034337;28;20092;-72
2022/09/22 03:19:21;;;;;;;4.88;1.60;;;;;;;;;;5034138;28;20482;-72
2022/09/22 03:21:48;;;;;;;3.15;1.40;;;;;;;;;;5034380;28;20029;-72
2022/09/22 03:24:14;;;;;;;5.88;1.50;;;;;;;;;;5034003;28;20036;-72
2022/09/22 03:26:40;;;;;;;5.95;1.20;;;;;;;;;;5034400;28;20025;-71
2022/09/22 03:29:07;;;;;;;3.92;1.30;;;;;;;;;;5033842;28;20022;-72
2022/09/22 03:31:33;;;;;;;6.75;1.70;;;;;;;;;;5034075;28;20022;-72
2022/09/22 03:34:00;;;;;;;3.45;1.33;;;;;;;;;;5033772;28;20029;-72
2022/09/22 03:36:26;;;;;;;2.92;1.30;;;;;;;;;;5049178;28;20021;-72
2022/09/22 03:38:52;;;;;;;3.60;1.60;;;;;;;;;;5033711;28;20017;-71
2022/09/22 03:41:19;;;;;;;3.58;1.70;;;;;;;;;;5033876;28;20859;-71
2022/09/22 03:43:45;;;;;;;4.80;1.40;;;;;;;;;;5033554;28;20484;-72
2022/09/22 03:46:13;;;;;;;5.00;1.55;;;;;;;;;;5033608;28;20036;-72
2022/09/22 03:48:39;;;;;;;3.33;1.20;;;;;;;;;;5049000;28;20017;-72
2022/09/22 03:51:06;;;;;;;4.68;1.48;;;;;;;;;;5033543;28;20051;-72
2022/09/22 03:53:32;;;;;;;3.65;1.30;;;;;;;;;;5033105;28;20029;-71
2022/09/22 03:56:09;;;;;;;2.05;1.38;;;;;;;;;;5033742;28;20021;-71
2022/09/22 03:58:36;;;;;;;6.00;1.73;;;;;;;;;;5049175;28;20029;-71
2022/09/22 04:01:03;;;;;;;3.78;1.55;;;;;;;;;;5033319;28;20035;-71
2022/09/22 04:03:30;;;;;;;3.90;1.48;;;;;;;;;;5033306;28;20021;-71
2022/09/22 04:05:56;;;;;;;5.45;1.70;;;;;;;;;;5033518;28;20029;-71
2022/09/22 04:08:23;;;;;;;5.18;1.95;;;;;;;;;;5032814;28;20532;-72
2022/09/22 04:10:49;;;;;;;2.83;1.60;;;;;;;;;;5033142;28;20033;-72
2022/09/22 04:13:15;;;;;;;5.80;1.80;;;;;;;;;;5033245;28;20035;-72
2022/09/22 04:15:42;;;;;;;2.25;1.30;;;;;;;;;;5033171;28;20382;-72
2022/09/22 04:18:08;;;;;;;2.47;1.50;;;;;;;;;;5032894;28;20060;-72
2022/09/22 04:20:37;;;;;;;4.05;1.40;;;;;;;;;;5032982;28;20033;-72
2022/09/22 04:23:04;;;;;;;2.63;1.30;;;;;;;;;;5032652;28;20029;-72
2022/09/22 04:25:31;;;;;;;3.60;1.90;;;;;;;;;;5032860;28;20021;-72
2022/09/22 04:27:57;;;;;;;7.18;1.55;;;;;;;;;;5031739;28;20032;-72
2022/09/22 04:30:23;;;;;;;3.28;1.40;;;;;;;;;;5032703;28;20024;-72
2022/09/22 04:32:50;;;;;;;4.88;1.80;;;;;;;;;;5033072;28;20037;-71
2022/09/22 04:35:16;;;;;;;6.35;1.40;;;;;;;;;;5032755;28;20043;-72
2022/09/22 04:37:42;;;;;;;3.15;1.58;;;;;;;;;;5032350;28;20036;-71
2022/09/22 04:40:10;;;;;;;3.03;1.90;;;;;;;;;;5048007;28;20032;-71
2022/09/22 04:42:37;;;;;;;6.38;1.70;;;;;;;;;;5032601;28;20021;-72
2022/09/22 04:45:05;;;;;;;3.50;1.65;;;;;;;;;;5047952;28;20038;-71
2022/09/22 04:47:32;;;;;;;6.78;1.50;;;;;;;;;;5032648;28;20022;-72
2022/09/22 04:49:59;;;;;;;3.45;1.45;;;;;;;;;;5047714;28;20018;-72
2022/09/22 04:52:25;;;;;;;5.03;1.25;;;;;;;;;;5032046;28;20021;-71
2022/09/22 04:54:52;;;;;;;3.10;1.52;;;;;;;;;;5032236;28;20044;-72
2022/09/22 04:57:18;;;;;;;3.65;1.50;;;;;;;;;;5032373;28;20079;-71
2022/09/22 04:59:44;;;;;;;2.15;1.25;;;;;;;;;;5031789;28;20083;-71
2022/09/22 05:02:10;;;;;;;2.90;1.30;;;;;;;;;;5032412;28;20470;-72
2022/09/22 05:04:37;;;;;;;4.70;1.60;;;;;;;;;;5032317;28;20063;-71
2022/09/22 05:07:03;;;;;;;1.45;1.23;;;;;;;;;;5030730;28;20032;-72
2022/09/22 05:09:29;;;;;;;5.53;1.38;;;;;;;;;;5032109;28;20032;-71
2022/09/22 05:11:58;;;;;;;3.45;1.33;;;;;;;;;;5031940;28;20055;-72
2022/09/22 05:14:24;;;;;;;4.25;1.20;;;;;;;;;;5031984;28;20044;-71
2022/09/22 05:16:51;;;;;;;2.13;1.17;;;;;;;;;;5032160;28;20036;-71
2022/09/22 05:19:17;;;;;;;4.03;1.38;;;;;;;;;;5032087;28;20022;-72
2022/09/22 05:21:43;;;;;;;2.55;1.33;;;;;;;;;;5032041;28;20021;-71
2022/09/22 05:24:10;;;;;;;3.25;1.38;;;;;;;;;;5032137;28;20025;-71
2022/09/22 05:26:36;;;;;;;3.55;1.35;;;;;;;;;;5031867;28;20025;-71
2022/09/22 05:29:03;;;;;;;3.72;1.48;;;;;;;;;;5031773;28;20033;-71
2022/09/22 05:31:29;;;;;;;3.47;1.60;;;;;;;;;;5032052;28;20025;-71
2022/09/22 05:33:55;;;;;;;5.03;1.38;;;;;;;;;;5031612;28;20038;-72
2022/09/22 05:36:22;;;;;;;3.75;1.60;;;;;;;;;;5031791;28;20067;-71
2022/09/22 05:38:48;;;;;;;6.25;1.70;;;;;;;;;;5031985;28;20025;-72
2022/09/22 05:41:14;;;;;;;5.85;1.90;;;;;;;;;;5031879;28;20025;-71
2022/09/22 05:43:41;;;;;;;3.75;1.92;;;;;;;;;;5031895;28;20478;-72
2022/09/22 05:46:07;;;;;;;3.45;1.50;;;;;;;;;;5031759;28;20421;-71
2022/09/22 05:48:33;;;;;;;5.40;1.75;;;;;;;;;;5031954;28;20030;-71
2022/09/22 05:51:00;;;;;;;2.15;1.50;;;;;;;;;;5031600;28;20025;-72
2022/09/22 05:53:27;;;;;;;2.88;1.52;;;;;;;;;;5031899;28;20039;-71
2022/09/22 05:55:55;;;;;;;6.53;1.60;;;;;;;;;;5031701;28;20029;-72
2022/09/22 05:58:22;;;;;;;5.82;1.48;;;;;;;;;;5031625;28;20113;-71
2022/09/22 06:00:48;;;;;;;5.20;1.48;;;;;;;;;;5031807;28;20030;-71
2022/09/22 06:03:15;;;;;;;4.63;1.70;;;;;;;;;;5047492;28;20035;-72
2022/09/22 06:05:43;;;;;;;2.95;1.42;;;;;;;;;;5030140;28;20032;-71
2022/09/22 06:08:09;;;;;;;10.27;1.70;;;;;;;;;;5031874;28;20021;-72
2022/09/22 06:10:37;;;;;;;8.30;1.88;;;;;;;;;;5031749;28;20853;-72
2022/09/22 06:13:08;;;;;;;5.57;1.67;;;;;;;;;;5046024;28;20036;-71
2022/09/22 06:15:35;;;;;;;5.30;1.65;;;;;;;;;;5041114;28;20039;-72
2022/09/22 06:18:05;;;;;;;5.30;1.73;;;;;;;;;;5044039;28;20497;-71
2022/09/22 06:20:32;;;;;;;8.70;2.00;;;;;;;;;;5034433;28;20039;-72
2022/09/22 06:22:59;;;;;;;5.65;1.60;;;;;;;;;;5036822;28;20071;-72
2022/09/22 06:25:27;;;;;;;3.63;2.15;;;;;;;;;;5044595;28;20544;-72
2022/09/22 06:28:01;;;;;;;3.70;1.67;;;;;;;;;;5029330;28;20031;-72
2022/09/22 06:30:27;;;;;;;7.70;2.08;;;;;;;;;;5012483;28;20034;-71
2022/09/22 06:32:55;;;;;;;5.05;1.90;;;;;;;;;;5019642;28;20022;-71
2022/09/22 06:35:21;;;;;;;11.18;2.05;;;;;;;;;;5037340;28;20028;-71
2022/09/22 06:37:55;;;;;;;7.07;2.10;;;;;;;;;;5054082;28;20027;-71
2022/09/22 06:40:22;;;;;;;5.00;1.70;;;;;;;;;;5047318;28;20486;-72
2022/09/22 06:42:49;;;;;;;8.05;1.98;;;;;;;;;;5046888;28;20013;-72
2022/09/22 06:45:17;;;;;;;22.27;3.10;;;;;;;;;;5043775;28;20017;-72
2022/09/22 06:47:43;;;;;;;22.38;3.65;;;;;;;;;;5033878;28;20032;-72
2022/09/22 06:50:09;;;;;;;18.30;3.13;;;;;;;;;;5046008;28;20403;-72
2022/09/22 06:52:36;;;;;;;14.07;2.10;;;;;;;;;;5034063;28;20026;-72
2022/09/22 06:55:03;;;;;;;5.55;2.35;;;;;;;;;;5030541;28;20037;-72
2022/09/22 06:57:31;;;;;;;8.15;2.50;;;;;;;;;;5034803;28;20375;-71
2022/09/22 06:59:59;;;;;;;7.32;2.50;;;;;;;;;;5047768;28;20029;-72
2022/09/22 07:02:28;;;;;;;9.57;2.80;;;;;;;;;;5033224;28;20024;-72
2022/09/22 07:04:58;;;;;;;10.15;2.50;;;;;;;;;;5033124;28;20025;-72
2022/09/22 07:07:31;;;;;;;14.73;2.50;;;;;;;;;;5021672;28;20018;-72
2022/09/22 07:09:58;;;;;;;14.38;2.47;;;;;;;;;;5030142;28;20021;-72
2022/09/22 07:12:25;;;;;;;27.83;2.80;;;;;;;;;;5031731;28;20056;-71
2022/09/22 07:14:52;;;;;;;39.60;3.92;;;;;;;;;;5032605;28;20033;-72
2022/09/22 07:17:19;;;;;;;9.07;2.40;;;;;;;;;;5022377;28;20084;-71
2022/09/22 07:19:46;;;;;;;14.23;2.40;;;;;;;;;;5021360;28;20493;-72
2022/09/22 07:22:16;;;;;;;30.55;3.08;;;;;;;;;;5049278;28;20020;-72
2022/09/22 07:24:42;;;;;;;43.88;4.32;;;;;;;;;;5037212;28;20021;-72
2022/09/22 07:27:09;;;;;;;8.00;1.88;;;;;;;;;;5021358;28;20032;-72
2022/09/22 07:29:37;;;;;;;14.55;2.38;;;;;;;;;;5025089;28;20036;-72
2022/09/22 07:32:03;;;;;;;9.88;1.90;;;;;;;;;;5031142;28;20390;-72
2022/09/22 07:34:30;;;;;;;5.25;1.90;;;;;;;;;;5028738;28;20043;-72
2022/09/22 07:36:58;;;;;;;5.90;2.05;;;;;;;;;;5023898;28;20036;-72
2022/09/22 07:39:24;;;;;;;6.13;1.83;;;;;;;;;;5031596;28;20025;-72
2022/09/22 07:41:50;;;;;;;6.50;1.40;;;;;;;;;;5031547;28;20448;-72
2022/09/22 07:47:03;;;;;;;4.90;1.60;;;;;;;;;;5031362;28;20033;-72
2022/09/22 07:49:29;;;;;;;5.15;1.90;;;;;;;;;;5032615;28;20074;-72
2022/09/22 07:51:56;;;;;;;5.63;1.80;;;;;;;;;;5030481;28;20026;-72
2022/09/22 07:54:23;;;;;;;5.45;1.58;;;;;;;;;;5031550;28;20091;-72
2022/09/22 07:56:54;;;;;;;4.25;1.50;;;;;;;;;;5029941;28;20478;-72
2022/09/22 07:59:20;;;;;;;26.83;3.13;;;;;;;;;;5030638;28;20509;-72
2022/09/22 08:01:49;;;;;;;17.52;2.30;;;;;;;;;;5031149;28;20042;-72
2022/09/22 08:04:17;;;;;;;4.88;2.20;;;;;;;;;;5027447;28;20039;-72
2022/09/22 08:06:45;;;;;;;2.63;1.50;;;;;;;;;;5022857;28;20022;-72
2022/09/22 08:09:12;;;;;;;6.63;1.88;;;;;;;;;;5026794;28;20030;-72
2022/09/22 08:11:38;;;;;;;6.53;1.90;;;;;;;;;;5022236;28;20050;-73
2022/09/22 08:14:06;;;;;;;2.58;1.50;;;;;;;;;;5017538;28;20041;-72
2022/09/22 08:16:38;;;;;;;3.92;1.50;;;;;;;;;;5046089;28;20025;-70
2022/09/22 08:19:13;;;;;;;4.22;1.58;;;;;;;;;;5031184;28;20033;-71
2022/09/22 08:21:41;;;;;;;3.83;1.80;;;;;;;;;;5030970;28;20031;-69
2022/09/22 08:24:08;;;;;;;4.55;1.45;;;;;;;;;;5031053;28;20056;-70
2022/09/22 08:26:35;;;;;;;3.13;1.67;;;;;;;;;;5027394;28;20444;-70
2022/09/22 08:29:02;;;;;;;3.67;1.50;;;;;;;;;;5029038;28;20488;-70
2022/09/22 08:31:29;;;;;;;3.55;1.70;;;;;;;;;;5030858;28;20484;-70
2022/09/22 08:33:55;;;;;;;7.20;1.77;;;;;;;;;;5030042;28;20038;-69
2022/09/22 08:36:26;;;;;;;2.80;1.40;;;;;;;;;;5030292;28;20025;-71
2022/09/22 08:38:54;;;;;;;4.93;1.40;;;;;;;;;;5023560;28;20042;-70
2022/09/22 08:41:26;;;;;;;3.38;1.52;;;;;;;;;;5029135;28;20019;-71
2022/09/22 08:43:57;;;;;;;6.22;1.80;;;;;;;;;;5029000;28;20496;-71
2022/09/22 08:46:40;;;;;;;4.35;1.80;;;;;;;;;;5027143;28;20029;-70
2022/09/22 08:52:02;;;;;;;5.28;1.73;;;;;;;;;;5030344;28;20022;-71
2022/09/22 08:54:30;;;;;;;5.10;1.92;;;;;;;;;;5034605;28;20033;-71
2022/09/22 08:56:56;;;;;;;2.40;1.73;;;;;;;;;;5031211;28;20031;-71
2022/09/22 08:59:25;;;;;;;6.50;1.70;;;;;;;;;;5028642;28;20553;-71
2022/09/22 09:02:10;;;;;;;4.60;1.52;;;;;;;;;;5029946;28;20025;-71
2022/09/22 09:04:45;;;;;;;5.63;1.60;;;;;;;;;;5030043;28;20040;-71
2022/09/22 09:07:21;;;;;;;5.22;1.50;;;;;;;;;;5028281;28;20490;-71
2022/09/22 09:09:48;;;;;;;3.55;1.63;;;;;;;;;;5025220;28;20022;-70
2022/09/22 09:12:33;;;;;;;8.10;1.58;;;;;;;;;;5014937;28;20753;-69
2022/09/22 09:15:09;;;;;;;3.35;1.58;;;;;;;;;;5022377;28;20045;-71
2022/09/22 09:17:37;;;;;;;7.95;1.77;;;;;;;;;;5017792;28;20048;-71
2022/09/22 09:20:16;;;;;;;3.25;1.70;;;;;;;;;;5029346;28;20103;-71
2022/09/22 09:22:48;;;;;;;2.57;1.40;;;;;;;;;;5021537;28;20030;-71
2022/09/22 09:25:21;;;;;;;3.33;1.52;;;;;;;;;;5010097;28;20052;-71
2022/09/22 09:27:51;;;;;;;3.72;1.70;;;;;;;;;;5017695;28;20037;-71
2022/09/22 09:30:18;;;;;;;3.95;1.80;;;;;;;;;;5028868;28;20021;-71
2022/09/22 09:32:50;;;;;;;7.30;1.40;;;;;;;;;;5030047;28;20033;-71
2022/09/22 09:35:25;;;;;;;8.55;1.40;;;;;;;;;;5029836;28;20421;-70
2022/09/22 09:37:54;;;;;;;4.18;1.65;;;;;;;;;;5025725;28;20026;-71
2022/09/22 09:40:20;;;;;;;3.55;1.52;;;;;;;;;;5018401;28;20039;-71
2022/09/22 09:42:53;;;;;;;5.78;1.70;;;;;;;;;;5030105;28;20025;-71
2022/09/22 09:45:23;;;;;;;4.32;1.55;;;;;;;;;;5020004;28;20030;-71
2022/09/22 09:47:51;;;;;;;13.63;1.80;;;;;;;;;;5014180;28;20386;-71
2022/09/22 09:50:18;;;;;;;5.68;1.83;;;;;;;;;;5024582;28;20035;-69
2022/09/22 09:52:46;;;;;;;4.68;1.45;;;;;;;;;;5025042;28;20025;-70
2022/09/22 09:55:18;;;;;;;11.43;1.65;;;;;;;;;;5033233;28;20036;-71
2022/09/22 09:58:05;;;;;;;6.43;1.50;;;;;;;;;;5014574;28;20030;-71
2022/09/22 10:00:32;;;;;;;8.70;1.63;;;;;;;;;;5033697;28;20029;-70
2022/09/22 10:03:02;;;;;;;11.77;1.83;;;;;;;;;;5034214;28;20043;-70
2022/09/22 10:05:29;;;;;;;8.18;1.67;;;;;;;;;;5032864;28;20032;-70
2022/09/22 10:08:00;;;;;;;7.30;1.60;;;;;;;;;;5033573;28;20049;-70
2022/09/22 10:10:37;;;;;;;6.07;1.58;;;;;;;;;;5033242;28;20022;-70
2022/09/22 10:13:03;;;;;;;5.35;1.50;;;;;;;;;;5033233;28;20041;-70
2022/09/22 10:15:30;;;;;;;4.45;1.10;;;;;;;;;;5033353;28;20476;-70
2022/09/22 10:17:57;;;;;;;5.95;1.52;;;;;;;;;;5031433;28;20025;-70
2022/09/22 10:20:27;;;;;;;6.07;1.58;;;;;;;;;;5023623;28;20026;-72
2022/09/22 10:22:54;;;;;;;5.95;1.60;;;;;;;;;;5033628;28;20028;-71
2022/09/22 10:25:22;;;;;;;4.15;1.60;;;;;;;;;;5031428;28;20032;-69
2022/09/22 10:28:03;;;;;;;6.35;1.60;;;;;;;;;;5013361;28;20048;-70
2022/09/22 10:30:36;;;;;;;5.22;1.55;;;;;;;;;;5033199;28;20022;-71
2022/09/22 10:33:10;;;;;;;5.40;1.50;;;;;;;;;;5033488;28;20059;-71
2022/09/22 10:35:37;;;;;;;11.02;1.80;;;;;;;;;;5023613;28;20037;-71
2022/09/22 10:38:29;;;;;;;3.15;1.45;;;;;;;;;;5011973;28;20337;-71
2022/09/22 10:40:59;;;;;;;5.38;1.40;;;;;;;;;;5011708;28;20034;-71
2022/09/22 10:43:36;;;;;;;7.13;1.35;;;;;;;;;;5025417;28;20024;-71
2022/09/22 10:46:09;;;;;;;7.00;1.27;;;;;;;;;;5032288;28;20030;-71
2022/09/22 10:48:44;;;;;;;6.78;1.50;;;;;;;;;;5033536;28;20405;-71
2022/09/22 10:51:13;;;;;;;5.88;1.27;;;;;;;;;;5033546;28;20028;-71
2022/09/22 10:53:44;;;;;;;5.93;1.30;;;;;;;;;;5033211;28;20055;-71
2022/09/22 10:56:19;;;;;;;5.35;1.33;;;;;;;;;;5032552;28;20409;-71
2022/09/22 10:59:04;;;;;;;4.90;1.35;;;;;;;;;;5033286;28;20472;-70
2022/09/22 11:01:30;;;;;;;4.03;1.00;;;;;;;;;;5033351;28;20041;-71
2022/09/22 11:03:57;;;;;;;5.22;1.00;;;;;;;;;;5032976;28;20374;-71
2022/09/22 11:12:27;;;;;;;4.70;1.30;;;;;;;;;;5033130;28;20049;-72
2022/09/22 11:15:09;;;;;;;4.72;1.30;;;;;;;;;;5033179;28;20045;-73
2022/09/22 11:18:00;;;;;;;3.85;1.30;;;;;;;;;;5032953;28;20033;-73
2022/09/22 11:20:27;;;;;;;4.55;1.00;;;;;;;;;;5033025;28;20029;-71
2022/09/22 11:22:56;;;;;;;3.40;1.23;;;;;;;;;;5032728;28;20450;-71
2022/09/22 11:25:22;;;;;;;5.93;1.27;;;;;;;;;;5033689;28;20425;-71
2022/09/22 11:27:54;;;;;;;5.80;1.15;;;;;;;;;;5033840;28;20017;-70
2022/09/22 11:30:21;;;;;;;4.88;1.50;;;;;;;;;;5033690;28;20032;-71
2022/09/22 11:33:01;;;;;;;6.32;1.30;;;;;;;;;;5030024;28;20021;-70
2022/09/22 11:35:42;;;;;;;8.95;1.55;;;;;;;;;;5027604;28;20052;-71
2022/09/22 11:38:27;;;;;;;11.77;1.50;;;;;;;;;;5034912;28;20025;-71
2022/09/22 11:40:56;;;;;;;3.65;1.30;;;;;;;;;;5032504;28;20029;-72
2022/09/22 11:43:25;;;;;;;3.63;1.10;;;;;;;;;;5035706;28;20125;-71
2022/09/22 11:45:58;;;;;;;3.83;1.45;;;;;;;;;;5037102;28;20029;-71
2022/09/22 11:48:30;;;;;;;5.68;1.20;;;;;;;;;;5031896;28;20021;-71
2022/09/22 11:51:10;;;;;;;6.65;1.35;;;;;;;;;;5035249;28;20024;-71
2022/09/22 11:53:59;;;;;;;5.47;1.30;;;;;;;;;;5022992;28;20155;-71
2022/09/22 11:56:35;;;;;;;11.73;1.65;;;;;;;;;;5031578;28;20494;-71
2022/09/22 11:59:05;;;;;;;5.70;1.40;;;;;;;;;;5030983;28;20026;-71
2022/09/22 12:01:36;;;;;;;1.92;1.10;;;;;;;;;;5039616;28;20111;-71
2022/09/22 12:04:08;;;;;;;11.98;1.98;;;;;;;;;;5038268;28;20024;-71
2022/09/22 12:06:40;;;;;;;2.00;1.20;;;;;;;;;;5011743;28;20029;-71
2022/09/22 12:09:11;;;;;;;7.43;1.50;;;;;;;;;;5019673;28;20051;-71
2022/09/22 12:11:38;;;;;;;3.85;1.38;;;;;;;;;;5031604;28;20052;-71
2022/09/22 12:14:05;;;;;;;5.93;1.23;;;;;;;;;;5031575;28;20036;-71
2022/09/22 12:16:31;;;;;;;3.15;1.23;;;;;;;;;;5031836;28;20034;-70
2022/09/22 12:18:58;;;;;;;4.13;1.15;;;;;;;;;;5031255;28;20018;-72
2022/09/22 12:21:43;;;;;;;4.45;1.40;;;;;;;;;;5031086;28;20021;-72
2022/09/22 12:24:10;;;;;;;4.03;1.52;;;;;;;;;;5035617;28;20079;-71
2022/09/22 12:26:41;;;;;;;5.88;1.60;;;;;;;;;;5035078;28;20029;-72
2022/09/22 12:29:17;;;;;;;4.15;1.40;;;;;;;;;;5031307;28;20029;-71
2022/09/22 12:31:46;;;;;;;3.25;1.48;;;;;;;;;;5033694;28;20516;-71
2022/09/22 12:34:15;;;;;;;9.55;1.25;;;;;;;;;;5042402;28;20086;-71
2022/09/22 12:36:42;;;;;;;6.15;1.33;;;;;;;;;;5030843;28;20030;-71
2022/09/22 12:39:11;;;;;;;3.10;1.40;;;;;;;;;;5031174;28;20025;-71
2022/09/22 12:41:37;;;;;;;;;;;;;;;;;;5030213;28;20083;-71
2022/09/22 12:44:08;;;;;;;4.90;1.40;;;;;;;;;;5031061;28;19905;-71
2022/09/22 12:46:34;;;;;;;3.13;1.50;;;;;;;;;;5031085;28;20038;-72
2022/09/22 12:49:07;;;;;;;3.50;1.60;;;;;;;;;;5031094;28;20394;-71
2022/09/22 12:51:34;;;;;;;2.80;1.55;;;;;;;;;;5029247;28;20389;-71
2022/09/22 12:54:19;;;;;;;4.35;1.40;;;;;;;;;;5030713;28;20037;-71
2022/09/22 12:56:46;;;;;;;5.57;1.20;;;;;;;;;;5024961;28;20026;-71
2022/09/22 12:59:31;;;;;;;3.08;1.48;;;;;;;;;;5011322;28;20026;-72
2022/09/22 13:02:16;;;;;;;4.05;1.77;;;;;;;;;;5028726;28;20081;-70
2022/09/22 13:04:42;;;;;;;1.95;1.40;;;;;;;;;;5021219;28;20049;-71
2022/09/22 13:07:27;;;;;;;7.00;1.58;;;;;;;;;;5022003;28;20030;-71
2022/09/22 13:10:12;;;;;;;2.47;1.70;;;;;;;;;;5030835;28;20029;-72
2022/09/22 13:12:39;;;;;;;3.47;1.35;;;;;;;;;;5030464;28;20045;-71
2022/09/22 13:15:09;;;;;;;4.70;1.80;;;;;;;;;;5026676;28;20402;-71
2022/09/22 13:17:40;;;;;;;4.78;1.27;;;;;;;;;;5029249;28;20402;-72
2022/09/22 13:20:14;;;;;;;1.77;1.45;;;;;;;;;;5030341;28;20096;-71
2022/09/22 13:22:40;;;;;;;4.00;1.60;;;;;;;;;;5030694;28;20022;-71
2022/09/22 13:25:20;;;;;;;4.03;1.30;;;;;;;;;;5030444;28;20049;-71
2022/09/22 13:27:46;;;;;;;2.80;1.23;;;;;;;;;;5030507;28;20030;-71
2022/09/22 13:30:14;;;;;;;4.20;1.40;;;;;;;;;;5028199;28;20485;-71
2022/09/22 13:32:47;;;;;;;2.78;1.30;;;;;;;;;;5014822;28;20030;-72
2022/09/22 13:35:42;;;;;;;3.55;1.48;;;;;;;;;;5010315;28;20034;-71
2022/09/22 13:38:10;;;;;;;5.47;1.45;;;;;;;;;;5033181;28;20371;-71
2022/09/22 13:40:37;;;;;;;7.70;1.23;;;;;;;;;;5030240;28;20025;-72
2022/09/22 13:43:05;;;;;;;4.72;1.38;;;;;;;;;;5026081;28;20017;-71
2022/09/22 13:45:32;;;;;;;2.80;1.20;;;;;;;;;;5030088;28;20551;-72
2022/09/22 13:48:06;;;;;;;7.80;1.20;;;;;;;;;;5030048;28;20026;-71
2022/09/22 13:50:37;;;;;;;8.07;1.30;;;;;;;;;;5030533;28;20025;-71
2022/09/22 13:53:06;;;;;;;4.03;1.02;;;;;;;;;;5029737;28;20029;-72
2022/09/22 13:55:33;;;;;;;6.15;1.52;;;;;;;;;;5029895;28;20071;-71
2022/09/22 13:58:01;;;;;;;4.97;1.40;;;;;;;;;;5030511;28;20033;-72
2022/09/22 14:00:32;;;;;;;3.60;1.20;;;;;;;;;;5029519;28;20020;-72
2022/09/22 14:03:00;;;;;;;6.25;1.55;;;;;;;;;;5033167;28;20026;-71
2022/09/22 14:05:33;;;;;;;5.18;1.40;;;;;;;;;;5043413;28;20448;-71
2022/09/22 14:08:02;;;;;;;2.72;1.30;;;;;;;;;;5014239;28;20070;-71
2022/09/22 14:10:29;;;;;;;4.22;1.33;;;;;;;;;;5030061;28;20596;-71
2022/09/22 14:12:55;;;;;;;3.65;1.23;;;;;;;;;;5028716;28;20026;-71
2022/09/22 14:15:37;;;;;;;2.60;1.10;;;;;;;;;;5028541;28;20033;-71
2022/09/22 14:18:13;;;;;;;4.90;1.60;;;;;;;;;;5030140;28;20108;-71
2022/09/22 14:20:42;;;;;;;5.68;1.20;;;;;;;;;;5017697;28;20029;-71
2022/09/22 14:23:14;;;;;;;11.50;1.38;;;;;;;;;;5030118;28;20032;-71
2022/09/22 14:25:41;;;;;;;5.47;1.42;;;;;;;;;;5029597;28;20033;-71
2022/09/22 14:28:13;;;;;;;5.90;1.10;;;;;;;;;;5030096;28;20014;-71
2022/09/22 14:30:40;;;;;;;5.35;1.30;;;;;;;;;;5030100;28;20026;-71
2022/09/22 14:33:14;;;;;;;6.28;1.35;;;;;;;;;;5032014;28;20043;-71
2022/09/22 14:35:41;;;;;;;2.13;1.00;;;;;;;;;;5033228;28;20397;-71
2022/09/22 14:38:07;;;;;;;12.02;2.08;;;;;;;;;;5033443;28;20157;-71
2022/09/22 14:40:34;;;;;;;4.13;1.30;;;;;;;;;;5033410;28;20036;-72
2022/09/22 14:43:02;;;;;;;4.03;1.10;;;;;;;;;;5033095;28;20030;-71
2022/09/22 14:45:31;;;;;;;6.65;1.30;;;;;;;;;;5013039;28;20038;-71
2022/09/22 14:48:12;;;;;;;6.22;1.38;;;;;;;;;;5012496;28;20014;-72
2022/09/22 14:50:44;;;;;;;10.00;1.52;;;;;;;;;;5013344;28;20026;-71
2022/09/22 14:53:14;;;;;;;3.08;1.10;;;;;;;;;;5013262;28;20052;-71
2022/09/22 14:55:49;;;;;;;3.80;1.10;;;;;;;;;;5013249;28;20022;-71
2022/09/22 14:58:17;;;;;;;4.22;1.10;;;;;;;;;;5030902;28;20027;-70
2022/09/22 15:04:01;;;;;;;4.55;1.20;;;;;;;;;;5005254;28;20411;-71
2022/09/22 15:06:32;;;;;;;3.13;1.20;;;;;;;;;;4987101;28;20538;-71
2022/09/22 15:09:02;;;;;;;2.42;1.08;;;;;;;;;;4991087;28;20038;-72
2022/09/22 15:11:47;;;;;;;6.22;1.10;;;;;;;;;;4991257;28;20050;-71
2022/09/22 15:14:32;;;;;;;4.85;1.23;;;;;;;;;;4991575;28;20042;-71